createdAt,value
2022-11-15T00:01:18.394Z,99.27
2022-11-15T00:06:21.306Z,99.29
2022-11-15T00:11:24.364Z,99.32
2022-11-15T00:16:27.413Z,99.28
2022-11-15T00:21:30.353Z,99.53
2022-11-15T00:26:33.220Z,99.29
2022-11-15T00:31:36.125Z,99.53
2022-11-15T00:36:39.034Z,99.74
2022-11-15T00:41:41.949Z,99.84
2022-11-15T00:46:44.840Z,99.97
2022-11-15T00:51:47.749Z,100.00
2022-11-15T00:56:50.646Z,100.00
2022-11-15T01:01:53.552Z,100.00
2022-11-15T01:06:56.511Z,100.00
2022-11-15T01:11:59.324Z,100.00
2022-11-15T01:17:02.270Z,100.00
2022-11-15T01:22:05.168Z,100.00
2022-11-15T01:27:08.582Z,100.00
2022-11-15T01:32:11.896Z,100.00
2022-11-15T01:37:14.802Z,100.00
2022-11-15T01:42:17.710Z,100.00
2022-11-15T01:47:34.024Z,100.00
2022-11-15T01:52:39.080Z,100.00
2022-11-15T01:57:44.338Z,100.00
2022-11-15T02:02:47.650Z,100.00
2022-11-15T02:07:51.169Z,100.00
2022-11-15T02:12:56.839Z,100.00
2022-11-15T02:18:14.081Z,100.00
2022-11-15T02:23:49.040Z,100.00
2022-11-15T02:29:20.961Z,100.00
2022-11-15T02:34:39.185Z,100.00
2022-11-15T02:39:50.383Z,100.00
2022-11-15T02:44:57.280Z,100.00
2022-11-15T02:50:06.328Z,100.00
2022-11-15T02:55:31.249Z,100.00
2022-11-15T03:00:40.860Z,100.00
2022-11-15T03:05:54.551Z,100.00
2022-11-15T03:11:16.829Z,100.00
2022-11-15T03:16:27.349Z,100.00
2022-11-15T03:21:32.233Z,100.00
2022-11-15T03:26:39.993Z,100.00
2022-11-15T03:31:51.363Z,100.00
2022-11-15T03:36:55.479Z,100.00
2022-11-15T03:42:13.676Z,100.00
2022-11-15T03:47:30.207Z,100.00
2022-11-15T03:52:35.570Z,100.00
2022-11-15T03:57:38.774Z,100.00
2022-11-15T04:02:41.678Z,100.00
2022-11-15T04:07:44.480Z,100.00
2022-11-15T04:12:48.765Z,100.00
2022-11-15T04:17:54.896Z,100.00
2022-11-15T04:23:17.973Z,100.00
2022-11-15T04:28:21.080Z,100.00
2022-11-15T04:33:24.410Z,100.00
2022-11-15T04:38:27.300Z,100.00
2022-11-15T04:43:31.289Z,100.00
2022-11-15T04:48:34.441Z,100.00
2022-11-15T04:53:37.345Z,100.00
2022-11-15T04:58:40.165Z,100.00
2022-11-15T05:04:02.403Z,100.00
2022-11-15T05:09:05.511Z,100.00
2022-11-15T05:14:08.622Z,100.00
2022-11-15T05:19:11.873Z,100.00
2022-11-15T05:24:14.939Z,100.00
2022-11-15T05:29:17.844Z,100.00
2022-11-15T05:34:22.796Z,100.00
2022-11-15T05:39:27.131Z,100.00
2022-11-15T05:44:30.362Z,100.00
2022-11-15T05:49:37.041Z,100.00
2022-11-15T05:54:40.435Z,100.00
2022-11-15T05:59:44.566Z,100.00
2022-11-15T06:04:47.492Z,100.00
2022-11-15T06:09:50.396Z,100.00
2022-11-15T06:14:53.278Z,100.00
2022-11-15T06:19:56.821Z,100.00
2022-11-15T06:25:05.025Z,100.00
2022-11-15T06:30:09.373Z,100.00
2022-11-15T06:35:12.496Z,100.00
2022-11-15T06:40:16.078Z,100.00
2022-11-15T06:45:19.028Z,100.00
2022-11-15T06:50:22.470Z,100.00
2022-11-15T06:55:25.361Z,100.00
2022-11-15T07:00:28.260Z,100.00
2022-11-15T07:05:31.458Z,100.00
2022-11-15T07:10:34.464Z,100.00
2022-11-15T07:15:37.379Z,100.00
2022-11-15T07:20:41.325Z,100.00
2022-11-15T07:25:44.207Z,100.00
2022-11-15T07:30:47.312Z,100.00
2022-11-15T07:35:50.731Z,100.00
2022-11-15T07:41:06.335Z,100.00
2022-11-15T07:46:10.690Z,100.00
2022-11-15T07:51:16.398Z,100.00
2022-11-15T07:56:20.062Z,100.00
2022-11-15T08:01:23.176Z,100.00
2022-11-15T08:06:26.173Z,100.00
2022-11-15T08:11:29.049Z,100.00
2022-11-15T08:16:31.987Z,100.00
2022-11-15T08:21:34.901Z,100.00
2022-11-15T08:26:38.000Z,100.00
2022-11-15T08:31:41.107Z,100.00
2022-11-15T08:36:46.109Z,100.00
2022-11-15T08:41:49.370Z,100.00
2022-11-15T08:46:52.588Z,100.00
2022-11-15T08:51:55.692Z,100.00
2022-11-15T08:56:58.905Z,100.00
2022-11-15T09:02:01.825Z,100.00
2022-11-15T09:07:04.902Z,100.00
2022-11-15T09:12:08.891Z,100.00
2022-11-15T09:17:11.851Z,100.00
2022-11-15T09:22:14.859Z,100.00
2022-11-15T09:27:17.769Z,100.00
2022-11-15T09:32:20.772Z,100.00
2022-11-15T09:37:23.777Z,100.00
2022-11-15T09:42:38.010Z,100.00
2022-11-15T09:48:05.321Z,100.00
2022-11-15T09:53:50.799Z,100.00
2022-11-15T09:58:58.645Z,100.00
2022-11-15T10:04:01.741Z,100.00
2022-11-15T10:09:14.696Z,100.00
2022-11-15T10:14:26.546Z,100.00
2022-11-15T10:20:04.057Z,100.00
2022-11-15T10:25:21.579Z,100.00
2022-11-15T10:30:37.684Z,100.00
2022-11-15T10:35:40.896Z,100.00
2022-11-15T10:40:44.930Z,100.00
2022-11-15T10:45:48.433Z,100.00
2022-11-15T10:50:53.270Z,100.00
2022-11-15T10:56:02.550Z,100.00
2022-11-15T11:01:21.409Z,100.00
2022-11-15T11:06:24.437Z,100.00
2022-11-15T11:11:47.934Z,100.00
2022-11-15T11:17:20.422Z,99.79
2022-11-15T11:22:32.951Z,99.92
2022-11-15T11:28:00.740Z,100.00
2022-11-15T11:33:25.252Z,99.87
2022-11-15T11:38:40.081Z,99.95
2022-11-15T11:44:11.817Z,100.00
2022-11-15T11:49:39.401Z,100.00
2022-11-15T11:55:27.563Z,99.35
2022-11-15T12:00:36.160Z,99.46
2022-11-15T12:05:41.765Z,99.83
2022-11-15T12:10:48.973Z,100.00
2022-11-15T12:16:07.454Z,100.00
2022-11-15T12:21:28.135Z,99.68
2022-11-15T12:26:38.136Z,98.22
2022-11-15T12:31:45.045Z,97.65
2022-11-15T12:36:50.971Z,99.76
2022-11-15T12:41:56.780Z,99.30
2022-11-15T12:47:01.017Z,97.94
2022-11-15T12:52:04.944Z,98.03
2022-11-15T12:57:07.833Z,98.41
2022-11-15T13:02:22.429Z,98.87
2022-11-15T13:07:40.967Z,98.59
2022-11-15T13:12:47.488Z,98.77
2022-11-15T13:17:52.235Z,98.31
2022-11-15T13:23:15.925Z,98.22
2022-11-15T13:28:25.653Z,98.53
2022-11-15T13:33:36.725Z,98.60
2022-11-15T13:38:41.228Z,98.65
2022-11-15T13:43:44.949Z,99.27
2022-11-15T13:48:53.186Z,99.28
2022-11-15T13:54:08.199Z,99.49
2022-11-15T13:59:26.562Z,99.44
2022-11-15T14:04:34.837Z,99.57
2022-11-15T14:09:39.480Z,99.73
2022-11-15T14:14:48.963Z,99.96
2022-11-15T14:19:52.479Z,99.90
2022-11-15T14:25:26.733Z,100.00
2022-11-15T14:30:29.634Z,99.91
2022-11-15T14:35:32.537Z,99.97
2022-11-15T14:40:35.394Z,100.00
2022-11-15T14:45:39.432Z,100.00
2022-11-15T14:50:42.481Z,100.00
2022-11-15T14:55:45.899Z,100.00
2022-11-15T15:00:48.901Z,100.00
2022-11-15T15:05:51.804Z,100.00
2022-11-15T15:10:54.712Z,100.00
2022-11-15T15:15:57.614Z,100.00
2022-11-15T15:21:08.121Z,100.00
2022-11-15T15:26:11.119Z,100.00
2022-11-15T15:31:14.009Z,100.00
2022-11-15T15:36:19.674Z,100.00
2022-11-15T15:41:22.586Z,100.00
2022-11-15T15:46:25.891Z,100.00
2022-11-15T15:51:28.795Z,100.00
2022-11-15T15:56:31.700Z,100.00
2022-11-15T16:01:34.597Z,100.00
2022-11-15T16:06:41.423Z,100.00
2022-11-15T16:11:48.150Z,100.00
2022-11-15T16:16:51.100Z,100.00
2022-11-15T16:21:54.104Z,100.00
2022-11-15T16:26:57.114Z,100.00
2022-11-15T16:32:00.123Z,100.00
2022-11-15T16:37:03.024Z,100.00
2022-11-15T16:42:06.032Z,100.00
2022-11-15T16:47:18.256Z,100.00
2022-11-15T16:52:21.677Z,100.00
2022-11-15T16:57:25.084Z,100.00
2022-11-15T17:02:28.092Z,100.00
2022-11-15T17:07:31.133Z,100.00
2022-11-15T17:12:35.451Z,100.00
2022-11-15T17:17:38.750Z,100.00
2022-11-15T17:22:41.621Z,100.00
2022-11-15T17:27:44.559Z,100.00
2022-11-15T17:32:48.077Z,100.00
2022-11-15T17:37:50.985Z,100.00
2022-11-15T17:42:53.990Z,100.00
2022-11-15T17:47:57.508Z,100.00
2022-11-15T17:53:00.515Z,100.00
2022-11-15T17:58:03.420Z,100.00
2022-11-15T18:03:06.321Z,100.00
2022-11-15T18:08:15.368Z,100.00
2022-11-15T18:13:18.479Z,100.00
2022-11-15T18:18:21.997Z,100.00
2022-11-15T18:23:24.907Z,100.00
2022-11-15T18:28:35.750Z,100.00
2022-11-15T18:33:39.111Z,100.00
2022-11-15T18:38:42.288Z,100.00
2022-11-15T18:43:45.611Z,100.00
2022-11-15T18:48:52.738Z,100.00
2022-11-15T18:53:57.147Z,100.00
2022-11-15T18:59:02.512Z,100.00
2022-11-15T19:04:14.666Z,100.00
2022-11-15T19:09:19.616Z,100.00
2022-11-15T19:14:24.463Z,100.00
2022-11-15T19:19:28.698Z,100.00
2022-11-15T19:24:33.481Z,100.00
2022-11-15T19:29:36.347Z,100.00
2022-11-15T19:34:41.841Z,100.00
2022-11-15T19:39:44.715Z,100.00
2022-11-15T19:44:47.825Z,100.00
2022-11-15T19:49:50.626Z,100.00
2022-11-15T19:54:54.249Z,100.00
2022-11-15T19:59:57.155Z,100.00
2022-11-15T20:05:00.168Z,100.00
2022-11-15T20:10:03.164Z,100.00
2022-11-15T20:15:06.915Z,100.00
2022-11-15T20:20:11.691Z,100.00
2022-11-15T20:25:15.562Z,100.00
2022-11-15T20:30:18.572Z,100.00
2022-11-15T20:35:21.472Z,100.00
2022-11-15T20:40:24.687Z,100.00
2022-11-15T20:45:27.590Z,100.00
2022-11-15T20:50:44.003Z,100.00
2022-11-15T20:55:49.618Z,100.00
2022-11-15T21:00:55.869Z,100.00
2022-11-15T21:05:59.174Z,100.00
2022-11-15T21:11:20.613Z,100.00
2022-11-15T21:16:24.029Z,100.00
2022-11-15T21:21:26.911Z,100.00
2022-11-15T21:26:29.848Z,100.00
2022-11-15T21:31:33.194Z,100.00
2022-11-15T21:36:36.670Z,100.00
2022-11-15T21:41:40.088Z,100.00
2022-11-15T21:46:43.235Z,100.00
2022-11-15T21:51:46.099Z,100.00
2022-11-15T21:56:49.621Z,100.00
2022-11-15T22:02:11.057Z,100.00
2022-11-15T22:07:14.392Z,100.00
2022-11-15T22:12:17.492Z,100.00
2022-11-15T22:17:20.494Z,100.00
2022-11-15T22:22:23.605Z,100.00
2022-11-15T22:27:26.609Z,100.00
2022-11-15T22:32:29.620Z,100.00
2022-11-15T22:37:32.521Z,100.00
2022-11-15T22:42:35.532Z,100.00
2022-11-15T22:47:38.533Z,100.00
2022-11-15T22:52:41.643Z,100.00
2022-11-15T22:57:44.855Z,100.00
2022-11-15T23:02:51.801Z,100.00
2022-11-15T23:07:56.299Z,100.00
2022-11-15T23:13:18.983Z,100.00
2022-11-15T23:18:21.968Z,100.00
2022-11-15T23:23:24.873Z,100.00
2022-11-15T23:28:27.880Z,100.00
2022-11-15T23:33:49.216Z,100.00
2022-11-15T23:38:52.507Z,100.00
2022-11-15T23:43:55.436Z,100.00
2022-11-15T23:48:58.852Z,100.00
2022-11-15T23:54:02.062Z,100.00
2022-11-15T23:59:05.926Z,100.00
